sensor_id;sensor_type;location;lat;lon;timestamp;pressure;altitude;pressure_sealevel;temperature;humidity
57572;BME280;44459;43.522;24.470;2023-01-30T00:01:31;100704.88;;;0.62;96.50
57572;BME280;44459;43.522;24.470;2023-01-30T00:03:57;100698.69;;;0.60;95.59
57572;BME280;44459;43.522;24.470;2023-01-30T00:06:23;100701.13;;;0.57;95.19
57572;BME280;44459;43.522;24.470;2023-01-30T00:08:48;100698.63;;;0.59;95.49
57572;BME280;44459;43.522;24.470;2023-01-30T00:11:15;100693.50;;;0.60;95.24
57572;BME280;44459;43.522;24.470;2023-01-30T00:13:41;100695.22;;;0.60;94.71
57572;BME280;44459;43.522;24.470;2023-01-30T00:16:08;100685.81;;;0.62;93.99
57572;BME280;44459;43.522;24.470;2023-01-30T00:18:34;100697.09;;;0.62;94.08
57572;BME280;44459;43.522;24.470;2023-01-30T00:21:02;100697.00;;;0.61;94.56
57572;BME280;44459;43.522;24.470;2023-01-30T00:23:30;100696.75;;;0.56;94.17
57572;BME280;44459;43.522;24.470;2023-01-30T00:25:55;100693.34;;;0.57;93.70
57572;BME280;44459;43.522;24.470;2023-01-30T00:28:22;100696.59;;;0.53;94.38
57572;BME280;44459;43.522;24.470;2023-01-30T00:30:48;100689.84;;;0.57;95.08
57572;BME280;44459;43.522;24.470;2023-01-30T00:33:15;100695.94;;;0.57;94.79
57572;BME280;44459;43.522;24.470;2023-01-30T00:35:45;100693.25;;;0.56;95.48
57572;BME280;44459;43.522;24.470;2023-01-30T00:38:11;100685.41;;;0.54;94.48
57572;BME280;44459;43.522;24.470;2023-01-30T00:40:36;100680.94;;;0.52;94.83
57572;BME280;44459;43.522;24.470;2023-01-30T00:43:02;100691.81;;;0.44;95.59
57572;BME280;44459;43.522;24.470;2023-01-30T00:45:46;100690.91;;;0.44;96.07
57572;BME280;44459;43.522;24.470;2023-01-30T00:48:31;100694.47;;;0.46;95.64
57572;BME280;44459;43.522;24.470;2023-01-30T00:50:57;100697.06;;;0.46;95.69
57572;BME280;44459;43.522;24.470;2023-01-30T00:53:22;100690.75;;;0.41;96.20
57572;BME280;44459;43.522;24.470;2023-01-30T00:55:52;100696.00;;;0.42;96.20
57572;BME280;44459;43.522;24.470;2023-01-30T00:58:18;100693.00;;;0.35;95.41
57572;BME280;44459;43.522;24.470;2023-01-30T01:00:44;100689.59;;;0.36;95.97
57572;BME280;44459;43.522;24.470;2023-01-30T01:03:09;100683.53;;;0.35;95.77
57572;BME280;44459;43.522;24.470;2023-01-30T01:05:35;100689.28;;;0.30;96.45
57572;BME280;44459;43.522;24.470;2023-01-30T01:08:00;100687.59;;;0.30;96.22
57572;BME280;44459;43.522;24.470;2023-01-30T01:10:26;100684.09;;;0.30;96.26
57572;BME280;44459;43.522;24.470;2023-01-30T01:12:51;100676.38;;;0.31;96.65
57572;BME280;44459;43.522;24.470;2023-01-30T01:15:21;100678.91;;;0.30;96.13
57572;BME280;44459;43.522;24.470;2023-01-30T01:17:48;100680.75;;;0.32;96.45
57572;BME280;44459;43.522;24.470;2023-01-30T01:20:14;100675.50;;;0.31;96.99
57572;BME280;44459;43.522;24.470;2023-01-30T01:22:39;100669.97;;;0.25;97.62
57572;BME280;44459;43.522;24.470;2023-01-30T01:25:05;100685.69;;;0.28;97.49
57572;BME280;44459;43.522;24.470;2023-01-30T01:27:31;100675.09;;;0.23;97.33
57572;BME280;44459;43.522;24.470;2023-01-30T01:29:56;100674.44;;;0.27;97.58
57572;BME280;44459;43.522;24.470;2023-01-30T01:32:22;100675.09;;;0.23;97.99
57572;BME280;44459;43.522;24.470;2023-01-30T01:34:48;100675.25;;;0.26;97.69
57572;BME280;44459;43.522;24.470;2023-01-30T01:37:14;100665.44;;;0.21;97.98
57572;BME280;44459;43.522;24.470;2023-01-30T01:39:39;100667.38;;;0.25;97.16
57572;BME280;44459;43.522;24.470;2023-01-30T01:42:25;100663.06;;;0.25;97.15
57572;BME280;44459;43.522;24.470;2023-01-30T01:47:32;100659.50;;;0.23;97.35
57572;BME280;44459;43.522;24.470;2023-01-30T01:49:58;100661.78;;;0.17;98.50
57572;BME280;44459;43.522;24.470;2023-01-30T01:52:24;100666.09;;;0.17;98.51
57572;BME280;44459;43.522;24.470;2023-01-30T01:54:56;100652.13;;;0.15;98.97
57572;BME280;44459;43.522;24.470;2023-01-30T01:57:42;100658.38;;;0.18;99.44
57572;BME280;44459;43.522;24.470;2023-01-30T02:00:15;100652.28;;;0.18;99.15
57572;BME280;44459;43.522;24.470;2023-01-30T02:02:48;100645.22;;;0.15;99.33
57572;BME280;44459;43.522;24.470;2023-01-30T02:05:15;100652.13;;;0.15;99.35
57572;BME280;44459;43.522;24.470;2023-01-30T02:07:59;100648.47;;;0.11;100.00
57572;BME280;44459;43.522;24.470;2023-01-30T02:10:36;100643.75;;;0.04;99.82
57572;BME280;44459;43.522;24.470;2023-01-30T02:13:05;100652.59;;;0.08;100.00
57572;BME280;44459;43.522;24.470;2023-01-30T02:15:31;100653.50;;;0.08;99.56
57572;BME280;44459;43.522;24.470;2023-01-30T02:17:57;100650.91;;;0.08;99.90
57572;BME280;44459;43.522;24.470;2023-01-30T02:29:00;100644.59;;;0.19;100.00
57572;BME280;44459;43.522;24.470;2023-01-30T02:34:40;100634.94;;;0.17;100.00
57572;BME280;44459;43.522;24.470;2023-01-30T02:45:25;100643.94;;;0.23;100.00
57572;BME280;44459;43.522;24.470;2023-01-30T02:48:05;100647.44;;;0.24;100.00
57572;BME280;44459;43.522;24.470;2023-01-30T02:50:54;100641.56;;;0.28;100.00
57572;BME280;44459;43.522;24.470;2023-01-30T02:53:22;100643.78;;;0.20;100.00
57572;BME280;44459;43.522;24.470;2023-01-30T02:55:48;100642.25;;;0.24;100.00
57572;BME280;44459;43.522;24.470;2023-01-30T02:58:15;100640.59;;;0.26;100.00
57572;BME280;44459;43.522;24.470;2023-01-30T03:01:19;100644.00;;;0.25;100.00
57572;BME280;44459;43.522;24.470;2023-01-30T03:06:37;100637.63;;;0.34;100.00
57572;BME280;44459;43.522;24.470;2023-01-30T03:15:52;100637.38;;;0.30;100.00
57572;BME280;44459;43.522;24.470;2023-01-30T03:17:51;100625.03;;;0.26;100.00
57572;BME280;44459;43.522;24.470;2023-01-30T03:20:18;100622.69;;;0.30;100.00
57572;BME280;44459;43.522;24.470;2023-01-30T03:22:45;100621.69;;;0.28;99.83
57572;BME280;44459;43.522;24.470;2023-01-30T03:25:13;100641.03;;;0.33;99.80
57572;BME280;44459;43.522;24.470;2023-01-30T03:27:40;100627.88;;;0.30;99.63
57572;BME280;44459;43.522;24.470;2023-01-30T03:30:06;100623.41;;;0.28;99.86
57572;BME280;44459;43.522;24.470;2023-01-30T03:32:32;100622.69;;;0.30;100.00
57572;BME280;44459;43.522;24.470;2023-01-30T03:34:57;100615.59;;;0.28;99.47
57572;BME280;44459;43.522;24.470;2023-01-30T03:37:22;100610.75;;;0.34;99.62
57572;BME280;44459;43.522;24.470;2023-01-30T03:39:48;100610.66;;;0.32;99.19
57572;BME280;44459;43.522;24.470;2023-01-30T03:42:14;100616.91;;;0.36;99.03
57572;BME280;44459;43.522;24.470;2023-01-30T03:44:39;100609.63;;;0.29;98.69
57572;BME280;44459;43.522;24.470;2023-01-30T03:47:04;100601.91;;;0.30;99.24
57572;BME280;44459;43.522;24.470;2023-01-30T03:49:30;100616.91;;;0.36;99.25
57572;BME280;44459;43.522;24.470;2023-01-30T03:51:56;100612.06;;;0.26;99.71
57572;BME280;44459;43.522;24.470;2023-01-30T03:54:21;100606.13;;;0.28;99.73
57572;BME280;44459;43.522;24.470;2023-01-30T03:56:46;100600.88;;;0.27;99.59
57572;BME280;44459;43.522;24.470;2023-01-30T03:59:12;100610.34;;;0.26;100.00
57572;BME280;44459;43.522;24.470;2023-01-30T04:01:37;100610.09;;;0.22;100.00
57572;BME280;44459;43.522;24.470;2023-01-30T04:04:03;100609.78;;;0.16;100.00
57572;BME280;44459;43.522;24.470;2023-01-30T04:06:28;100609.88;;;0.17;100.00
57572;BME280;44459;43.522;24.470;2023-01-30T04:08:54;100598.50;;;0.15;100.00
57572;BME280;44459;43.522;24.470;2023-01-30T04:11:20;100602.31;;;0.22;100.00
57572;BME280;44459;43.522;24.470;2023-01-30T04:13:45;100595.16;;;0.18;100.00
57572;BME280;44459;43.522;24.470;2023-01-30T04:16:19;100593.72;;;0.23;100.00
57572;BME280;44459;43.522;24.470;2023-01-30T04:18:45;100593.72;;;0.23;100.00
57572;BME280;44459;43.522;24.470;2023-01-30T04:21:10;100589.19;;;0.19;100.00
57572;BME280;44459;43.522;24.470;2023-01-30T04:23:36;100596.31;;;0.23;100.00
57572;BME280;44459;43.522;24.470;2023-01-30T04:26:02;100583.75;;;0.14;100.00
57572;BME280;44459;43.522;24.470;2023-01-30T04:28:27;100584.88;;;0.19;100.00
57572;BME280;44459;43.522;24.470;2023-01-30T04:30:53;100583.09;;;0.18;100.00
57572;BME280;44459;43.522;24.470;2023-01-30T04:33:18;100582.28;;;0.19;100.00
57572;BME280;44459;43.522;24.470;2023-01-30T04:36:13;100578.16;;;0.23;100.00
57572;BME280;44459;43.522;24.470;2023-01-30T04:38:39;100584.97;;;0.21;100.00
57572;BME280;44459;43.522;24.470;2023-01-30T04:41:05;100572.81;;;0.20;100.00
57572;BME280;44459;43.522;24.470;2023-01-30T04:43:31;100572.81;;;0.20;100.00
57572;BME280;44459;43.522;24.470;2023-01-30T04:45:56;100579.34;;;0.29;100.00
57572;BME280;44459;43.522;24.470;2023-01-30T04:48:23;100577.72;;;0.31;100.00
57572;BME280;44459;43.522;24.470;2023-01-30T04:50:51;100577.41;;;0.25;100.00
57572;BME280;44459;43.522;24.470;2023-01-30T04:53:18;100571.31;;;0.25;100.00
57572;BME280;44459;43.522;24.470;2023-01-30T04:55:44;100570.69;;;0.29;100.00
57572;BME280;44459;43.522;24.470;2023-01-30T04:58:10;100574.16;;;0.29;100.00
57572;BME280;44459;43.522;24.470;2023-01-30T05:00:35;100562.69;;;0.24;100.00
57572;BME280;44459;43.522;24.470;2023-01-30T05:03:00;100574.81;;;0.25;100.00
57572;BME280;44459;43.522;24.470;2023-01-30T05:05:26;100567.03;;;0.25;100.00
57572;BME280;44459;43.522;24.470;2023-01-30T05:07:52;100563.63;;;0.26;100.00
57572;BME280;44459;43.522;24.470;2023-01-30T05:10:18;100564.22;;;0.21;100.00
57572;BME280;44459;43.522;24.470;2023-01-30T05:12:44;100566.81;;;0.21;100.00
57572;BME280;44459;43.522;24.470;2023-01-30T05:15:11;100562.25;;;0.17;100.00
57572;BME280;44459;43.522;24.470;2023-01-30T05:17:37;100566.81;;;0.21;100.00
57572;BME280;44459;43.522;24.470;2023-01-30T05:20:03;100575.56;;;0.23;100.00
57572;BME280;44459;43.522;24.470;2023-01-30T05:22:29;100571.09;;;0.20;100.00
57572;BME280;44459;43.522;24.470;2023-01-30T05:24:54;100567.94;;;0.26;100.00
57572;BME280;44459;43.522;24.470;2023-01-30T05:27:20;100570.13;;;0.18;100.00
57572;BME280;44459;43.522;24.470;2023-01-30T05:29:45;100568.41;;;0.19;100.00
57572;BME280;44459;43.522;24.470;2023-01-30T05:32:13;100581.56;;;0.22;100.00
57572;BME280;44459;43.522;24.470;2023-01-30T05:34:38;100569.22;;;0.18;100.00
57572;BME280;44459;43.522;24.470;2023-01-30T05:37:04;100569.22;;;0.18;100.00
57572;BME280;44459;43.522;24.470;2023-01-30T05:39:29;100570.38;;;0.23;100.00
57572;BME280;44459;43.522;24.470;2023-01-30T05:41:55;100569.22;;;0.18;100.00
57572;BME280;44459;43.522;24.470;2023-01-30T05:44:21;100559.41;;;0.12;100.00
57572;BME280;44459;43.522;24.470;2023-01-30T05:46:46;100572.72;;;0.18;100.00
57572;BME280;44459;43.522;24.470;2023-01-30T05:49:11;100568.50;;;0.20;100.00
57572;BME280;44459;43.522;24.470;2023-01-30T05:51:37;100572.06;;;0.22;100.00
57572;BME280;44459;43.522;24.470;2023-01-30T05:54:02;100569.41;;;0.21;100.00
57572;BME280;44459;43.522;24.470;2023-01-30T05:56:28;100567.63;;;0.20;100.00
57572;BME280;44459;43.522;24.470;2023-01-30T05:58:58;100578.75;;;0.17;100.00
57572;BME280;44459;43.522;24.470;2023-01-30T06:01:24;100590.97;;;0.20;100.00
57572;BME280;44459;43.522;24.470;2023-01-30T06:03:49;100587.56;;;0.21;100.00
57572;BME280;44459;43.522;24.470;2023-01-30T06:06:15;100600.72;;;0.24;100.00
57572;BME280;44459;43.522;24.470;2023-01-30T06:08:40;100583.34;;;0.23;100.00
57572;BME280;44459;43.522;24.470;2023-01-30T06:11:08;100594.53;;;0.38;100.00
57572;BME280;44459;43.522;24.470;2023-01-30T06:13:34;100593.84;;;0.42;100.00
57572;BME280;44459;43.522;24.470;2023-01-30T06:16:00;100595.34;;;0.37;100.00
57572;BME280;44459;43.522;24.470;2023-01-30T06:18:26;100587.97;;;0.44;100.00
57572;BME280;44459;43.522;24.470;2023-01-30T06:20:52;100592.50;;;0.48;100.00
57572;BME280;44459;43.522;24.470;2023-01-30T06:23:19;100589.81;;;0.47;100.00
57572;BME280;44459;43.522;24.470;2023-01-30T06:25:45;100602.28;;;0.54;100.00
57572;BME280;44459;43.522;24.470;2023-01-30T06:28:12;100611.03;;;0.56;99.82
57572;BME280;44459;43.522;24.470;2023-01-30T06:30:38;100607.50;;;0.54;100.00
57572;BME280;44459;43.522;24.470;2023-01-30T06:33:04;100610.34;;;0.59;100.00
57572;BME280;44459;43.522;24.470;2023-01-30T06:35:30;100609.91;;;0.67;99.23
57572;BME280;44459;43.522;24.470;2023-01-30T06:37:55;100623.94;;;0.71;99.92
57572;BME280;44459;43.522;24.470;2023-01-30T06:40:20;100623.44;;;0.78;99.38
57572;BME280;44459;43.522;24.470;2023-01-30T06:42:47;100620.97;;;0.81;98.68
57572;BME280;44459;43.522;24.470;2023-01-30T06:45:14;100619.88;;;0.76;98.71
57572;BME280;44459;43.522;24.470;2023-01-30T06:47:48;100624.41;;;0.80;98.91
57572;BME280;44459;43.522;24.470;2023-01-30T06:50:14;100626.56;;;0.88;98.62
57572;BME280;44459;43.522;24.470;2023-01-30T06:52:41;100629.19;;;0.88;98.36
57572;BME280;44459;43.522;24.470;2023-01-30T06:55:08;100632.31;;;0.99;99.26
57572;BME280;44459;43.522;24.470;2023-01-30T06:57:33;100630.75;;;1.02;98.79
57572;BME280;44459;43.522;24.470;2023-01-30T06:59:59;100644.06;;;1.09;96.97
57572;BME280;44459;43.522;24.470;2023-01-30T07:02:29;100632.19;;;1.14;96.92
57572;BME280;44459;43.522;24.470;2023-01-30T07:04:59;100627.19;;;1.18;96.80
57572;BME280;44459;43.522;24.470;2023-01-30T07:07:25;100631.53;;;1.18;95.93
57572;BME280;44459;43.522;24.470;2023-01-30T07:09:51;100631.69;;;1.21;96.77
57572;BME280;44459;43.522;24.470;2023-01-30T07:12:16;100628.03;;;1.17;96.09
57572;BME280;44459;43.522;24.470;2023-01-30T07:14:42;100643.41;;;1.13;96.23
57572;BME280;44459;43.522;24.470;2023-01-30T07:17:07;100630.50;;;1.14;96.75
57572;BME280;44459;43.522;24.470;2023-01-30T07:19:32;100647.94;;;1.17;95.96
57572;BME280;44459;43.522;24.470;2023-01-30T07:21:58;100636.56;;;1.15;96.38
57572;BME280;44459;43.522;24.470;2023-01-30T07:24:23;100634.50;;;1.08;96.50
57572;BME280;44459;43.522;24.470;2023-01-30T07:26:49;100625.56;;;1.02;97.45
57572;BME280;44459;43.522;24.470;2023-01-30T07:29:14;100633.75;;;1.10;96.94
57572;BME280;44459;43.522;24.470;2023-01-30T07:31:39;100622.31;;;1.07;96.80
57572;BME280;44459;43.522;24.470;2023-01-30T07:34:05;100633.22;;;0.99;96.54
57572;BME280;44459;43.522;24.470;2023-01-30T07:36:30;100629.63;;;0.97;97.75
57572;BME280;44459;43.522;24.470;2023-01-30T07:38:58;100622.88;;;1.01;97.35
57572;BME280;44459;43.522;24.470;2023-01-30T07:41:23;100619.41;;;1.00;96.96
57572;BME280;44459;43.522;24.470;2023-01-30T07:43:49;100621.50;;;1.08;97.19
57572;BME280;44459;43.522;24.470;2023-01-30T07:46:15;100621.50;;;1.08;97.02
57572;BME280;44459;43.522;24.470;2023-01-30T07:48:43;100628.16;;;1.02;98.10
57572;BME280;44459;43.522;24.470;2023-01-30T07:51:09;100619.56;;;1.04;97.30
57572;BME280;44459;43.522;24.470;2023-01-30T07:53:34;100621.41;;;1.06;97.50
57572;BME280;44459;43.522;24.470;2023-01-30T07:56:05;100609.31;;;1.07;97.82
57572;BME280;44459;43.522;24.470;2023-01-30T07:58:31;100604.09;;;1.07;96.99
57572;BME280;44459;43.522;24.470;2023-01-30T08:00:56;100607.28;;;1.19;96.70
57572;BME280;44459;43.522;24.470;2023-01-30T08:03:22;100604.19;;;1.26;96.64
57572;BME280;44459;43.522;24.470;2023-01-30T08:05:47;100594.97;;;1.32;95.59
57572;BME280;44459;43.522;24.470;2023-01-30T08:08:13;100613.03;;;1.29;94.67
57572;BME280;44459;43.522;24.470;2023-01-30T08:10:38;100608.56;;;1.09;94.91
57572;BME280;44459;43.522;24.470;2023-01-30T08:13:04;100599.13;;;0.93;96.56
57572;BME280;44459;43.522;24.470;2023-01-30T08:15:29;100603.88;;;1.02;96.07
57572;BME280;44459;43.522;24.470;2023-01-30T08:17:57;100602.69;;;0.95;95.99
57572;BME280;44459;43.522;24.470;2023-01-30T08:20:23;100603.34;;;0.91;95.73
57572;BME280;44459;43.522;24.470;2023-01-30T08:22:49;100592.13;;;0.92;96.44
57572;BME280;44459;43.522;24.470;2023-01-30T08:25:15;100586.47;;;1.01;95.48
57572;BME280;44459;43.522;24.470;2023-01-30T08:27:40;100582.28;;;1.03;94.44
57572;BME280;44459;43.522;24.470;2023-01-30T08:30:06;100589.09;;;1.01;94.57
57572;BME280;44459;43.522;24.470;2023-01-30T08:32:32;100591.25;;;1.10;94.23
57572;BME280;44459;43.522;24.470;2023-01-30T08:34:57;100590.38;;;1.09;94.62
57572;BME280;44459;43.522;24.470;2023-01-30T08:37:22;100591.69;;;1.19;93.02
57572;BME280;44459;43.522;24.470;2023-01-30T08:39:48;100596.31;;;1.24;92.83
57572;BME280;44459;43.522;24.470;2023-01-30T08:42:13;100596.38;;;1.26;92.10
57572;BME280;44459;43.522;24.470;2023-01-30T08:44:38;100600.78;;;1.27;91.09
57572;BME280;44459;43.522;24.470;2023-01-30T08:47:04;100596.91;;;1.36;91.88
57572;BME280;44459;43.522;24.470;2023-01-30T08:49:29;100605.59;;;1.55;92.54
57572;BME280;44459;43.522;24.470;2023-01-30T08:51:55;100600.13;;;1.68;90.39
57572;BME280;44459;43.522;24.470;2023-01-30T08:54:20;100596.19;;;1.76;90.14
57572;BME280;44459;43.522;24.470;2023-01-30T08:56:46;100599.31;;;1.86;90.46
57572;BME280;44459;43.522;24.470;2023-01-30T08:59:11;100591.91;;;1.95;89.55
57572;BME280;44459;43.522;24.470;2023-01-30T09:01:37;100610.06;;;2.13;89.48
57572;BME280;44459;43.522;24.470;2023-01-30T09:04:03;100593.91;;;2.20;86.97
57572;BME280;44459;43.522;24.470;2023-01-30T09:06:28;100606.31;;;2.26;85.58
57572;BME280;44459;43.522;24.470;2023-01-30T09:08:54;100600.56;;;2.14;85.46
57572;BME280;44459;43.522;24.470;2023-01-30T09:11:19;100601.38;;;2.13;85.47
57572;BME280;44459;43.522;24.470;2023-01-30T09:13:44;100598.75;;;1.93;85.42
57572;BME280;44459;43.522;24.470;2023-01-30T09:16:11;100594.38;;;1.92;84.76
57572;BME280;44459;43.522;24.470;2023-01-30T09:18:40;100595.00;;;2.06;85.01
57572;BME280;44459;43.522;24.470;2023-01-30T09:21:07;100589.78;;;2.06;86.00
57572;BME280;44459;43.522;24.470;2023-01-30T09:23:33;100593.91;;;2.20;86.49
57572;BME280;44459;43.522;24.470;2023-01-30T09:25:58;100593.28;;;2.07;84.71
57572;BME280;44459;43.522;24.470;2023-01-30T09:28:25;100590.13;;;2.14;85.26
57572;BME280;44459;43.522;24.470;2023-01-30T09:30:50;100587.53;;;2.14;84.91
57572;BME280;44459;43.522;24.470;2023-01-30T09:33:16;100577.38;;;2.20;86.75
57572;BME280;44459;43.522;24.470;2023-01-30T09:35:47;100575.13;;;2.27;86.39
57572;BME280;44459;43.522;24.470;2023-01-30T09:38:13;100569.25;;;2.31;86.64
57572;BME280;44459;43.522;24.470;2023-01-30T09:56:42;100543.19;;;2.12;85.87
57572;BME280;44459;43.522;24.470;2023-01-30T09:59:18;100550.13;;;2.12;85.21
57572;BME280;44459;43.522;24.470;2023-01-30T10:04:33;100536.53;;;2.19;84.87
57572;BME280;44459;43.522;24.470;2023-01-30T10:15:56;100515.31;;;2.29;83.66
57572;BME280;44459;43.522;24.470;2023-01-30T10:24:09;100491.31;;;2.36;82.64
57572;BME280;44459;43.522;24.470;2023-01-30T10:26:38;100490.00;;;2.26;82.16
57572;BME280;44459;43.522;24.470;2023-01-30T10:32:02;100470.31;;;2.53;81.80
57572;BME280;44459;43.522;24.470;2023-01-30T10:34:39;100471.16;;;2.73;81.13
57572;BME280;44459;43.522;24.470;2023-01-30T10:37:20;100459.50;;;2.86;81.21
57572;BME280;44459;43.522;24.470;2023-01-30T10:42:48;100450.63;;;2.81;77.72
57572;BME280;44459;43.522;24.470;2023-01-30T10:51:15;100437.63;;;2.82;78.64
57572;BME280;44459;43.522;24.470;2023-01-30T10:53:52;100430.59;;;3.02;77.66
57572;BME280;44459;43.522;24.470;2023-01-30T11:02:23;100408.09;;;3.04;77.57
57572;BME280;44459;43.522;24.470;2023-01-30T11:07:22;100397.03;;;2.87;78.80
57572;BME280;44459;43.522;24.470;2023-01-30T11:09:48;100389.31;;;2.90;78.79
57572;BME280;44459;43.522;24.470;2023-01-30T11:12:14;100382.00;;;2.82;77.53
57572;BME280;44459;43.522;24.470;2023-01-30T11:15:00;100375.66;;;2.75;75.42
57572;BME280;44459;43.522;24.470;2023-01-30T11:17:36;100369.81;;;2.81;75.44
57572;BME280;44459;43.522;24.470;2023-01-30T11:20:17;100372.25;;;2.76;76.12
57572;BME280;44459;43.522;24.470;2023-01-30T11:22:46;100366.97;;;2.75;74.92
57572;BME280;44459;43.522;24.470;2023-01-30T11:25:15;100356.31;;;2.69;77.93
57572;BME280;44459;43.522;24.470;2023-01-30T11:27:42;100346.66;;;2.66;78.75
57572;BME280;44459;43.522;24.470;2023-01-30T11:30:17;100343.41;;;2.49;77.58
57572;BME280;44459;43.522;24.470;2023-01-30T11:32:44;100336.00;;;2.60;79.42
57572;BME280;44459;43.522;24.470;2023-01-30T11:37:41;100334.44;;;2.65;80.20
57572;BME280;44459;43.522;24.470;2023-01-30T11:40:27;100319.28;;;2.55;80.05
57572;BME280;44459;43.522;24.470;2023-01-30T11:43:04;100311.47;;;2.55;81.15
57572;BME280;44459;43.522;24.470;2023-01-30T11:45:38;100305.03;;;2.45;79.88
57572;BME280;44459;43.522;24.470;2023-01-30T11:48:15;100301.28;;;2.39;78.34
57572;BME280;44459;43.522;24.470;2023-01-30T11:50:45;100291.38;;;2.30;79.55
57572;BME280;44459;43.522;24.470;2023-01-30T11:55:49;100289.44;;;2.25;80.00
57572;BME280;44459;43.522;24.470;2023-01-30T11:58:15;100275.63;;;2.27;78.83
57572;BME280;44459;43.522;24.470;2023-01-30T12:00:42;100274.94;;;2.31;80.98
57572;BME280;44459;43.522;24.470;2023-01-30T12:03:15;100271.66;;;2.37;78.94
57572;BME280;44459;43.522;24.470;2023-01-30T12:05:43;100270.94;;;2.39;77.77
57572;BME280;44459;43.522;24.470;2023-01-30T12:08:35;100268.19;;;2.36;77.02
57572;BME280;44459;43.522;24.470;2023-01-30T12:10:59;100263.16;;;2.41;78.08
57572;BME280;44459;43.522;24.470;2023-01-30T12:13:37;100261.38;;;2.40;77.67
57572;BME280;44459;43.522;24.470;2023-01-30T12:16:15;100264.56;;;2.33;76.62
57572;BME280;44459;43.522;24.470;2023-01-30T12:21:45;100254.28;;;2.36;78.90
57572;BME280;44459;43.522;24.470;2023-01-30T12:24:28;100253.81;;;2.46;76.94
57572;BME280;44459;43.522;24.470;2023-01-30T12:27:03;100240.13;;;2.51;77.17
57572;BME280;44459;43.522;24.470;2023-01-30T12:29:35;100248.72;;;2.49;75.61
57572;BME280;44459;43.522;24.470;2023-01-30T12:34:33;100238.28;;;2.49;78.52
57572;BME280;44459;43.522;24.470;2023-01-30T12:40:31;100236.06;;;2.36;75.33
57572;BME280;44459;43.522;24.470;2023-01-30T12:45:31;100230.88;;;2.37;77.50
57572;BME280;44459;43.522;24.470;2023-01-30T12:48:24;100228.47;;;2.42;78.01
57572;BME280;44459;43.522;24.470;2023-01-30T12:53:46;100216.75;;;2.31;77.23
57572;BME280;44459;43.522;24.470;2023-01-30T12:59:09;100210.53;;;2.05;76.02
57572;BME280;44459;43.522;24.470;2023-01-30T13:08:28;100203.50;;;2.02;77.53
57572;BME280;44459;43.522;24.470;2023-01-30T13:13:52;100196.91;;;2.12;77.51
57572;BME280;44459;43.522;24.470;2023-01-30T13:18:58;100191.78;;;2.14;79.13
57572;BME280;44459;43.522;24.470;2023-01-30T13:27:04;100192.91;;;2.20;77.93
57572;BME280;44459;43.522;24.470;2023-01-30T13:29:38;100197.22;;;2.20;77.88
57572;BME280;44459;43.522;24.470;2023-01-30T13:32:11;100193.69;;;2.18;77.71
57572;BME280;44459;43.522;24.470;2023-01-30T13:34:45;100183.19;;;2.16;77.54
57572;BME280;44459;43.522;24.470;2023-01-30T13:37:17;100184.75;;;2.11;76.26
57572;BME280;44459;43.522;24.470;2023-01-30T13:39:54;100177.41;;;2.01;76.23
57572;BME280;44459;43.522;24.470;2023-01-30T13:42:27;100184.56;;;2.07;78.07
57572;BME280;44459;43.522;24.470;2023-01-30T13:44:55;100179.13;;;2.00;77.65
57572;BME280;44459;43.522;24.470;2023-01-30T13:52:55;100170.22;;;1.95;79.06
57572;BME280;44459;43.522;24.470;2023-01-30T13:58:14;100159.81;;;1.95;78.41
57572;BME280;44459;43.522;24.470;2023-01-30T14:00:51;100162.25;;;1.91;78.94
57572;BME280;44459;43.522;24.470;2023-01-30T14:03:24;100166.47;;;1.87;80.57
57572;BME280;44459;43.522;24.470;2023-01-30T14:08:49;100165.06;;;1.75;80.10
57572;BME280;44459;43.522;24.470;2023-01-30T14:14:05;100158.00;;;1.50;79.91
57572;BME280;44459;43.522;24.470;2023-01-30T14:16:42;100171.28;;;1.56;80.40
57572;BME280;44459;43.522;24.470;2023-01-30T14:19:33;100166.25;;;1.61;79.07
57572;BME280;44459;43.522;24.470;2023-01-30T14:22:17;100163.31;;;1.53;78.84
57572;BME280;44459;43.522;24.470;2023-01-30T14:24:44;100160.69;;;1.51;80.64
57572;BME280;44459;43.522;24.470;2023-01-30T14:27:23;100150.28;;;1.51;80.55
57572;BME280;44459;43.522;24.470;2023-01-30T14:29:52;100154.09;;;1.60;80.80
57572;BME280;44459;43.522;24.470;2023-01-30T14:39:59;100138.31;;;1.57;80.54
57572;BME280;44459;43.522;24.470;2023-01-30T14:42:29;100131.50;;;1.59;80.59
57572;BME280;44459;43.522;24.470;2023-01-30T14:45:15;100132.44;;;1.40;80.89
57572;BME280;44459;43.522;24.470;2023-01-30T14:47:41;100129.59;;;1.34;81.81
57572;BME280;44459;43.522;24.470;2023-01-30T14:50:21;100135.69;;;1.34;82.70
57572;BME280;44459;43.522;24.470;2023-01-30T14:52:48;100130.53;;;1.36;82.76
57572;BME280;44459;43.522;24.470;2023-01-30T14:55:23;100131.63;;;1.41;82.26
57572;BME280;44459;43.522;24.470;2023-01-30T14:57:59;100124.66;;;1.40;81.53
57572;BME280;44459;43.522;24.470;2023-01-30T15:00:30;100125.19;;;1.31;81.95
57572;BME280;44459;43.522;24.470;2023-01-30T15:03:02;100120.09;;;1.34;82.44
57572;BME280;44459;43.522;24.470;2023-01-30T15:05:38;100119.91;;;1.30;82.75
57572;BME280;44459;43.522;24.470;2023-01-30T15:08:12;100111.88;;;1.24;83.17
57572;BME280;44459;43.522;24.470;2023-01-30T15:24:44;100117.75;;;1.20;83.93
57572;BME280;44459;43.522;24.470;2023-01-30T15:32:43;100098.06;;;1.04;83.79
57572;BME280;44459;43.522;24.470;2023-01-30T15:37:52;100100.50;;;1.01;84.23
57572;BME280;44459;43.522;24.470;2023-01-30T15:40:27;100096.53;;;0.88;84.58
57572;BME280;44459;43.522;24.470;2023-01-30T15:45:39;100095.03;;;0.74;85.77
57572;BME280;44459;43.522;24.470;2023-01-30T15:51:14;100092.75;;;0.61;87.11